Time,TemperatureF,DewpointF,PressureIn,WindDirection,WindDirectionDegrees,WindSpeedMPH,WindSpeedGustMPH,Humidity,HourlyPrecipIn,Conditions,Clouds,dailyrainin,SoftwareType,DateUTC
2013-12-19 00:01:00,41.2,32.7,30.32,West,270,0.0,0.0,72,0.00,,,0.00,,2013-12-18 23:01:00,
2013-12-19 00:06:00,41.2,32.7,30.32,West,270,0.0,0.0,72,0.00,,,0.00,,2013-12-18 23:06:00,
2013-12-19 00:11:00,41.2,32.7,30.32,West,270,0.0,0.0,72,0.00,,,0.00,,2013-12-18 23:11:00,
2013-12-19 00:16:00,41.2,32.7,30.32,West,270,0.0,0.0,72,0.00,,,0.00,,2013-12-18 23:16:00,
2013-12-19 00:21:00,41.2,32.7,30.32,West,270,0.0,0.0,72,0.00,,,0.00,,2013-12-18 23:21:00,
2013-12-19 00:26:00,41.2,32.7,30.32,West,270,0.0,0.0,72,0.00,,,0.00,,2013-12-18 23:26:00,
2013-12-19 00:31:00,41.2,32.7,30.32,West,270,0.0,0.0,72,0.00,,,0.00,,2013-12-18 23:31:00,
2013-12-19 00:36:00,41.2,32.7,30.32,West,270,0.0,0.0,72,0.00,,,0.00,,2013-12-18 23:36:00,
2013-12-19 00:41:00,41.2,32.7,30.32,West,270,0.0,0.0,72,0.00,,,0.00,,2013-12-18 23:41:00,
2013-12-19 00:46:00,41.2,32.7,30.32,West,270,0.0,0.0,72,0.00,,,0.00,,2013-12-18 23:46:00,
2013-12-19 00:51:00,41.2,32.7,30.32,West,270,0.0,0.0,72,0.00,,,0.00,,2013-12-18 23:51:00,
2013-12-19 00:56:00,41.2,32.7,30.32,West,270,0.0,0.0,72,0.00,,,0.00,,2013-12-18 23:56:00,
2013-12-19 01:01:00,39.9,32.5,30.29,West,270,0.0,0.0,75,0.00,,,0.00,,2013-12-19 00:01:00,
2013-12-19 01:06:00,39.9,32.5,30.29,West,270,0.0,0.0,75,0.00,,,0.00,,2013-12-19 00:06:00,
2013-12-19 01:11:00,39.9,32.5,30.29,West,270,0.0,0.0,75,0.00,,,0.00,,2013-12-19 00:11:00,
2013-12-19 01:16:00,39.9,32.5,30.29,West,270,0.0,0.0,75,0.00,,,0.00,,2013-12-19 00:16:00,
2013-12-19 01:21:00,39.7,33.1,30.29,North,0,0.0,0.0,77,0.00,,,0.00,,2013-12-19 00:21:00,
2013-12-19 01:26:00,39.7,33.1,30.29,North,0,0.0,0.0,77,0.00,,,0.00,,2013-12-19 00:26:00,
2013-12-19 01:31:00,39.7,33.1,30.29,North,0,0.0,0.0,77,0.00,,,0.00,,2013-12-19 00:31:00,
2013-12-19 01:36:00,39.7,33.1,30.29,North,0,0.0,0.0,77,0.00,,,0.00,,2013-12-19 00:36:00,
2013-12-19 01:41:00,39.7,33.1,30.29,North,0,0.0,0.0,77,0.00,,,0.00,,2013-12-19 00:41:00,
2013-12-19 01:46:00,39.7,33.1,30.29,North,0,0.0,0.0,77,0.00,,,0.00,,2013-12-19 00:46:00,
2013-12-19 01:51:00,39.7,33.1,30.29,North,0,0.0,0.0,77,0.00,,,0.00,,2013-12-19 00:51:00,
2013-12-19 01:56:00,39.7,33.1,30.29,North,0,0.0,0.0,77,0.00,,,0.00,,2013-12-19 00:56:00,
2013-12-19 02:01:00,40.6,34.5,30.29,SW,225,0.0,1.3,79,0.00,,,0.00,,2013-12-19 01:01:00,
2013-12-19 02:06:00,40.6,34.5,30.29,SW,225,0.0,1.3,79,0.00,,,0.00,,2013-12-19 01:06:00,
2013-12-19 02:11:00,40.6,34.5,30.29,SW,225,0.0,1.3,79,0.00,,,0.00,,2013-12-19 01:11:00,
2013-12-19 02:16:00,40.8,35.1,30.29,SW,225,1.3,1.7,80,0.00,,,0.00,,2013-12-19 01:16:00,
2013-12-19 02:21:00,40.8,35.1,30.29,SW,225,1.3,1.7,80,0.00,,,0.00,,2013-12-19 01:21:00,
2013-12-19 02:26:00,40.8,35.1,30.29,SW,225,1.3,1.7,80,0.00,,,0.00,,2013-12-19 01:26:00,
2013-12-19 02:31:00,40.8,35.1,30.29,SW,225,1.3,1.7,80,0.00,,,0.00,,2013-12-19 01:31:00,
2013-12-19 02:36:00,40.8,35.1,30.29,SW,225,1.3,1.7,80,0.00,,,0.00,,2013-12-19 01:36:00,
2013-12-19 02:41:00,40.8,35.1,30.29,SW,225,1.3,1.7,80,0.00,,,0.00,,2013-12-19 01:41:00,
2013-12-19 02:46:00,40.8,35.1,30.29,SW,225,1.3,1.7,80,0.00,,,0.00,,2013-12-19 01:46:00,
2013-12-19 02:51:00,40.8,35.1,30.29,SW,225,1.3,1.7,80,0.00,,,0.00,,2013-12-19 01:51:00,
2013-12-19 02:56:00,40.8,35.1,30.29,SW,225,1.3,1.7,80,0.00,,,0.00,,2013-12-19 01:56:00,
2013-12-19 03:01:00,42.8,36.0,30.29,SW,225,0.0,0.0,77,0.00,,,0.00,,2013-12-19 02:01:00,
2013-12-19 03:06:00,42.8,36.0,30.29,SW,225,0.0,0.0,77,0.00,,,0.00,,2013-12-19 02:06:00,
2013-12-19 03:11:00,42.8,36.0,30.29,SW,225,0.0,0.0,77,0.00,,,0.00,,2013-12-19 02:11:00,
2013-12-19 03:16:00,42.8,36.0,30.29,SW,225,0.0,0.0,77,0.00,,,0.00,,2013-12-19 02:16:00,
2013-12-19 03:21:00,42.8,36.0,30.29,SW,225,0.0,0.0,77,0.00,,,0.00,,2013-12-19 02:21:00,
2013-12-19 03:26:00,42.8,36.0,30.29,SW,225,0.0,0.0,77,0.00,,,0.00,,2013-12-19 02:26:00,
2013-12-19 03:31:00,42.8,36.0,30.29,SW,225,0.0,0.0,77,0.00,,,0.00,,2013-12-19 02:31:00,
2013-12-19 03:36:00,42.8,36.0,30.29,SW,225,0.0,0.0,77,0.00,,,0.00,,2013-12-19 02:36:00,
2013-12-19 03:41:00,42.8,36.0,30.29,SW,225,0.0,0.0,77,0.00,,,0.00,,2013-12-19 02:41:00,
2013-12-19 03:46:00,42.8,36.0,30.29,SW,225,0.0,0.0,77,0.00,,,0.00,,2013-12-19 02:46:00,
2013-12-19 03:51:00,42.8,36.0,30.29,SW,225,0.0,0.0,77,0.00,,,0.00,,2013-12-19 02:51:00,
2013-12-19 03:56:00,42.8,36.0,30.29,SW,225,0.0,0.0,77,0.00,,,0.00,,2013-12-19 02:56:00,
2013-12-19 04:01:00,42.4,36.7,30.29,SW,225,0.8,0.8,80,0.00,,,0.00,,2013-12-19 03:01:00,
2013-12-19 04:06:00,42.4,36.7,30.29,SW,225,0.8,0.8,80,0.00,,,0.00,,2013-12-19 03:06:00,
2013-12-19 04:11:00,42.4,36.7,30.29,SW,225,0.8,0.8,80,0.00,,,0.00,,2013-12-19 03:11:00,
2013-12-19 04:16:00,42.4,36.7,30.29,SW,225,0.8,0.8,80,0.00,,,0.00,,2013-12-19 03:16:00,
2013-12-19 04:21:00,42.4,36.7,30.29,SW,225,0.8,0.8,80,0.00,,,0.00,,2013-12-19 03:21:00,
2013-12-19 04:26:00,42.4,36.7,30.29,SW,225,0.8,0.8,80,0.00,,,0.00,,2013-12-19 03:26:00,
2013-12-19 04:31:00,42.4,36.7,30.29,SW,225,0.8,0.8,80,0.00,,,0.00,,2013-12-19 03:31:00,
2013-12-19 04:36:00,42.4,36.7,30.29,SW,225,0.8,0.8,80,0.00,,,0.00,,2013-12-19 03:36:00,
2013-12-19 04:41:00,42.4,36.7,30.29,SW,225,0.8,0.8,80,0.00,,,0.00,,2013-12-19 03:41:00,
2013-12-19 04:46:00,42.4,36.7,30.29,SW,225,0.8,0.8,80,0.00,,,0.00,,2013-12-19 03:46:00,
2013-12-19 04:51:00,42.4,36.7,30.29,SW,225,0.8,0.8,80,0.00,,,0.00,,2013-12-19 03:51:00,
2013-12-19 04:56:00,42.4,36.7,30.29,SW,225,0.8,0.8,80,0.00,,,0.00,,2013-12-19 03:56:00,
2013-12-19 05:01:00,42.1,36.3,30.29,West,270,1.7,2.2,80,0.00,,,0.00,,2013-12-19 04:01:00,
2013-12-19 05:06:00,42.1,36.3,30.29,West,270,1.7,2.2,80,0.00,,,0.00,,2013-12-19 04:06:00,
2013-12-19 05:11:00,42.1,36.3,30.29,West,270,1.7,2.2,80,0.00,,,0.00,,2013-12-19 04:11:00,
2013-12-19 05:16:00,42.1,36.3,30.29,West,270,1.7,2.2,80,0.00,,,0.00,,2013-12-19 04:16:00,
2013-12-19 05:21:00,42.1,36.3,30.29,West,270,1.7,2.2,80,0.00,,,0.00,,2013-12-19 04:21:00,
2013-12-19 05:26:00,42.1,36.3,30.29,West,270,1.7,2.2,80,0.00,,,0.00,,2013-12-19 04:26:00,
2013-12-19 05:31:00,42.1,36.3,30.29,West,270,1.7,2.2,80,0.00,,,0.00,,2013-12-19 04:31:00,
2013-12-19 05:41:00,42.1,36.3,30.29,West,270,1.7,2.2,80,0.00,,,0.00,,2013-12-19 04:41:00,
2013-12-19 05:46:00,42.1,36.3,30.29,West,270,1.7,2.2,80,0.00,,,0.00,,2013-12-19 04:46:00,
2013-12-19 05:51:00,42.1,36.3,30.29,West,270,1.7,2.2,80,0.00,,,0.00,,2013-12-19 04:51:00,
2013-12-19 05:56:00,42.1,36.3,30.29,West,270,1.7,2.2,80,0.00,,,0.00,,2013-12-19 04:56:00,
2013-12-19 06:01:00,42.4,35.2,30.26,North,0,1.7,3.1,76,0.00,,,0.00,,2013-12-19 05:01:00,
2013-12-19 06:06:00,42.4,35.2,30.26,North,0,1.7,3.1,76,0.00,,,0.00,,2013-12-19 05:06:00,
2013-12-19 06:11:00,42.4,35.2,30.26,North,0,1.7,3.1,76,0.00,,,0.00,,2013-12-19 05:11:00,
2013-12-19 06:16:00,42.4,35.2,30.26,North,0,1.7,3.1,76,0.00,,,0.00,,2013-12-19 05:16:00,
2013-12-19 06:21:00,42.4,35.2,30.26,North,0,1.7,3.1,76,0.00,,,0.00,,2013-12-19 05:21:00,
2013-12-19 06:26:00,42.4,35.2,30.26,North,0,1.7,3.1,76,0.00,,,0.00,,2013-12-19 05:26:00,
2013-12-19 06:31:00,42.4,35.2,30.26,North,0,1.7,3.1,76,0.00,,,0.00,,2013-12-19 05:31:00,
2013-12-19 06:36:00,42.4,35.2,30.26,North,0,1.7,3.1,76,0.00,,,0.00,,2013-12-19 05:36:00,
2013-12-19 06:41:00,42.4,35.2,30.26,North,0,1.7,3.1,76,0.00,,,0.00,,2013-12-19 05:41:00,
2013-12-19 06:46:00,42.4,35.2,30.26,North,0,1.7,3.1,76,0.00,,,0.00,,2013-12-19 05:46:00,
2013-12-19 06:51:00,42.4,35.2,30.26,North,0,1.7,3.1,76,0.00,,,0.00,,2013-12-19 05:51:00,
2013-12-19 06:56:00,42.4,35.2,30.26,North,0,1.7,3.1,76,0.00,,,0.00,,2013-12-19 05:56:00,
2013-12-19 07:01:00,43.7,37.2,30.26,West,270,6.2,6.2,78,0.00,,,0.00,,2013-12-19 06:01:00,
2013-12-19 07:06:00,43.7,37.2,30.26,West,270,6.2,6.2,78,0.00,,,0.00,,2013-12-19 06:06:00,
2013-12-19 07:11:00,43.7,37.2,30.26,West,270,6.2,6.2,78,0.00,,,0.00,,2013-12-19 06:11:00,
2013-12-19 07:16:00,43.7,37.2,30.26,West,270,6.2,6.2,78,0.00,,,0.00,,2013-12-19 06:16:00,
2013-12-19 07:21:00,43.7,37.2,30.26,West,270,6.2,6.2,78,0.00,,,0.00,,2013-12-19 06:21:00,
2013-12-19 07:26:00,43.7,37.2,30.26,West,270,6.2,6.2,78,0.00,,,0.00,,2013-12-19 06:26:00,
2013-12-19 07:31:00,43.7,37.2,30.26,West,270,6.2,6.2,78,0.00,,,0.00,,2013-12-19 06:31:00,
2013-12-19 07:36:00,43.7,37.2,30.26,West,270,6.2,6.2,78,0.00,,,0.00,,2013-12-19 06:36:00,
2013-12-19 07:41:00,43.7,37.2,30.26,West,270,6.2,6.2,78,0.00,,,0.00,,2013-12-19 06:41:00,
2013-12-19 07:46:00,43.7,37.2,30.26,West,270,6.2,6.2,78,0.00,,,0.00,,2013-12-19 06:46:00,
2013-12-19 07:51:00,43.7,37.2,30.26,West,270,6.2,6.2,78,0.00,,,0.00,,2013-12-19 06:51:00,
2013-12-19 07:56:00,43.7,37.2,30.26,West,270,6.2,6.2,78,0.00,,,0.00,,2013-12-19 06:56:00,
2013-12-19 08:01:00,44.2,36.7,30.29,North,0,5.8,6.2,75,0.00,,,0.00,,2013-12-19 07:01:00,
2013-12-19 08:06:00,44.2,36.7,30.29,North,0,5.8,6.2,75,0.00,,,0.00,,2013-12-19 07:06:00,
2013-12-19 08:11:00,44.2,36.7,30.29,North,0,5.8,6.2,75,0.00,,,0.00,,2013-12-19 07:11:00,
2013-12-19 08:16:00,44.2,36.7,30.29,North,0,5.8,6.2,75,0.00,,,0.00,,2013-12-19 07:16:00,
2013-12-19 08:21:00,44.2,36.7,30.29,North,0,5.8,6.2,75,0.00,,,0.00,,2013-12-19 07:21:00,
2013-12-19 08:26:00,44.2,36.7,30.29,North,0,5.8,6.2,75,0.00,,,0.00,,2013-12-19 07:26:00,
2013-12-19 08:31:00,44.2,36.7,30.29,North,0,5.8,6.2,75,0.00,,,0.00,,2013-12-19 07:31:00,
2013-12-19 08:36:00,44.2,36.7,30.29,North,0,5.8,6.2,75,0.00,,,0.00,,2013-12-19 07:36:00,
2013-12-19 08:41:00,44.2,36.7,30.29,North,0,5.8,6.2,75,0.00,,,0.00,,2013-12-19 07:41:00,
2013-12-19 08:46:00,44.2,36.7,30.29,North,0,5.8,6.2,75,0.00,,,0.00,,2013-12-19 07:46:00,
2013-12-19 08:51:00,44.2,36.7,30.29,North,0,5.8,6.2,75,0.00,,,0.00,,2013-12-19 07:51:00,
2013-12-19 08:56:00,44.2,36.7,30.29,North,0,5.8,6.2,75,0.00,,,0.00,,2013-12-19 07:56:00,
2013-12-19 09:01:00,46.6,38.7,30.29,South,180,1.7,2.2,74,0.00,,,0.00,,2013-12-19 08:01:00,
2013-12-19 09:06:00,46.6,38.7,30.29,South,180,1.7,2.2,74,0.00,,,0.00,,2013-12-19 08:06:00,
2013-12-19 09:11:00,46.6,38.7,30.29,South,180,1.7,2.2,74,0.00,,,0.00,,2013-12-19 08:11:00,
2013-12-19 09:16:00,46.6,38.7,30.29,South,180,1.7,2.2,74,0.00,,,0.00,,2013-12-19 08:16:00,
2013-12-19 09:21:00,46.6,38.7,30.29,South,180,1.7,2.2,74,0.00,,,0.00,,2013-12-19 08:21:00,
2013-12-19 09:26:00,46.6,38.7,30.29,South,180,1.7,2.2,74,0.00,,,0.00,,2013-12-19 08:26:00,
2013-12-19 09:31:00,46.6,38.7,30.29,South,180,1.7,2.2,74,0.00,,,0.00,,2013-12-19 08:31:00,
2013-12-19 09:36:00,46.6,38.7,30.29,South,180,1.7,2.2,74,0.00,,,0.00,,2013-12-19 08:36:00,
2013-12-19 09:41:00,46.6,38.7,30.29,South,180,1.7,2.2,74,0.00,,,0.00,,2013-12-19 08:41:00,
2013-12-19 09:46:00,46.6,38.7,30.29,South,180,1.7,2.2,74,0.00,,,0.00,,2013-12-19 08:46:00,
2013-12-19 09:51:00,46.6,38.7,30.29,South,180,1.7,2.2,74,0.00,,,0.00,,2013-12-19 08:51:00,
2013-12-19 09:56:00,46.6,38.7,30.29,South,180,1.7,2.2,74,0.00,,,0.00,,2013-12-19 08:56:00,
2013-12-19 10:01:00,49.1,40.6,30.29,South,180,6.7,6.7,73,0.00,,,0.00,,2013-12-19 09:01:00,
2013-12-19 10:06:00,49.1,40.6,30.29,South,180,6.7,6.7,73,0.00,,,0.00,,2013-12-19 09:06:00,
2013-12-19 10:11:00,49.1,40.6,30.29,South,180,6.7,6.7,73,0.00,,,0.00,,2013-12-19 09:11:00,
2013-12-19 10:16:00,49.1,40.6,30.29,South,180,6.7,6.7,73,0.00,,,0.00,,2013-12-19 09:16:00,
2013-12-19 10:21:00,49.1,40.6,30.29,South,180,6.7,6.7,73,0.00,,,0.00,,2013-12-19 09:21:00,
2013-12-19 10:26:00,49.1,40.6,30.29,South,180,6.7,6.7,73,0.00,,,0.00,,2013-12-19 09:26:00,
2013-12-19 10:31:00,49.1,40.6,30.29,South,180,6.7,6.7,73,0.00,,,0.00,,2013-12-19 09:31:00,
2013-12-19 10:36:00,49.1,40.6,30.29,South,180,6.7,6.7,73,0.00,,,0.00,,2013-12-19 09:36:00,
2013-12-19 10:41:00,49.1,40.6,30.29,South,180,6.7,6.7,73,0.00,,,0.00,,2013-12-19 09:41:00,
2013-12-19 10:46:00,49.1,40.6,30.29,South,180,6.7,6.7,73,0.00,,,0.00,,2013-12-19 09:46:00,
2013-12-19 10:51:00,49.1,40.6,30.29,South,180,6.7,6.7,73,0.00,,,0.00,,2013-12-19 09:51:00,
2013-12-19 10:56:00,49.1,40.6,30.29,South,180,6.7,6.7,73,0.00,,,0.00,,2013-12-19 09:56:00,
2013-12-19 11:01:00,49.1,39.2,30.29,West,270,6.7,12.9,69,0.00,,,0.00,,2013-12-19 10:01:00,
2013-12-19 11:06:00,49.1,39.2,30.29,West,270,6.7,12.9,69,0.00,,,0.00,,2013-12-19 10:06:00,
2013-12-19 11:11:00,49.1,39.2,30.29,West,270,6.7,12.9,69,0.00,,,0.00,,2013-12-19 10:11:00,
2013-12-19 11:16:00,49.1,39.2,30.29,West,270,6.7,12.9,69,0.00,,,0.00,,2013-12-19 10:16:00,
2013-12-19 11:21:00,49.1,39.2,30.29,West,270,6.7,12.9,69,0.00,,,0.00,,2013-12-19 10:21:00,
2013-12-19 11:26:00,49.1,39.2,30.29,West,270,6.7,12.9,69,0.00,,,0.00,,2013-12-19 10:26:00,
2013-12-19 11:31:00,49.1,39.2,30.29,West,270,6.7,12.9,69,0.00,,,0.00,,2013-12-19 10:31:00,
2013-12-19 11:36:00,49.1,39.2,30.29,West,270,6.7,12.9,69,0.00,,,0.00,,2013-12-19 10:36:00,
2013-12-19 11:41:00,49.1,39.2,30.29,West,270,6.7,12.9,69,0.00,,,0.00,,2013-12-19 10:41:00,
2013-12-19 11:46:00,49.1,39.2,30.29,West,270,6.7,12.9,69,0.00,,,0.00,,2013-12-19 10:46:00,
2013-12-19 11:51:00,49.1,39.2,30.29,West,270,6.7,12.9,69,0.00,,,0.00,,2013-12-19 10:51:00,
2013-12-19 11:56:00,49.1,39.2,30.29,West,270,6.7,12.9,69,0.00,,,0.00,,2013-12-19 10:56:00,
2013-12-19 12:01:00,50.0,41.5,30.26,South,180,6.7,12.5,73,0.00,,,0.00,,2013-12-19 11:01:00,
2013-12-19 12:06:00,50.0,41.5,30.26,South,180,6.7,12.5,73,0.00,,,0.00,,2013-12-19 11:06:00,
2013-12-19 12:11:00,50.0,41.5,30.26,South,180,6.7,12.5,73,0.00,,,0.00,,2013-12-19 11:11:00,
2013-12-19 12:16:00,50.0,41.5,30.26,South,180,6.7,12.5,73,0.00,,,0.00,,2013-12-19 11:16:00,
2013-12-19 12:21:00,50.0,41.5,30.26,South,180,6.7,12.5,73,0.00,,,0.00,,2013-12-19 11:21:00,
2013-12-19 12:26:00,50.0,41.5,30.26,South,180,6.7,12.5,73,0.00,,,0.00,,2013-12-19 11:26:00,
2013-12-19 12:31:00,49.8,41.0,30.26,West,270,4.9,8.0,72,0.00,,,0.00,,2013-12-19 11:31:00,
2013-12-19 12:36:00,49.8,41.0,30.26,West,270,4.9,8.0,72,0.00,,,0.00,,2013-12-19 11:36:00,
2013-12-19 12:41:00,49.8,41.0,30.26,West,270,4.9,8.0,72,0.00,,,0.00,,2013-12-19 11:41:00,
2013-12-19 12:46:00,49.8,41.0,30.26,West,270,4.9,8.0,72,0.00,,,0.00,,2013-12-19 11:46:00,
2013-12-19 12:51:00,49.8,41.0,30.26,West,270,4.9,8.0,72,0.00,,,0.00,,2013-12-19 11:51:00,
2013-12-19 12:56:00,49.8,41.0,30.26,West,270,4.9,8.0,72,0.00,,,0.00,,2013-12-19 11:56:00,
2013-12-19 13:01:00,49.6,41.9,30.26,South,180,5.8,5.8,75,0.00,,,0.00,,2013-12-19 12:01:00,
2013-12-19 13:06:00,49.6,41.9,30.26,South,180,5.8,5.8,75,0.00,,,0.00,,2013-12-19 12:06:00,
2013-12-19 13:11:00,49.6,41.9,30.26,South,180,5.8,5.8,75,0.00,,,0.00,,2013-12-19 12:11:00,
2013-12-19 13:16:00,49.6,41.9,30.26,South,180,5.8,5.8,75,0.00,,,0.00,,2013-12-19 12:16:00,
2013-12-19 13:21:00,49.6,41.9,30.26,South,180,5.8,5.8,75,0.00,,,0.00,,2013-12-19 12:21:00,
2013-12-19 13:26:00,49.5,42.4,30.23,SSW,202,8.5,8.5,77,0.00,,,0.00,,2013-12-19 12:26:00,
2013-12-19 13:31:00,49.3,42.6,30.23,South,180,8.0,9.8,78,0.00,,,0.00,,2013-12-19 12:31:00,
2013-12-19 13:36:00,49.3,42.6,30.23,South,180,8.0,9.8,78,0.00,,,0.00,,2013-12-19 12:36:00,
2013-12-19 13:41:00,49.3,42.6,30.23,South,180,8.0,9.8,78,0.00,,,0.00,,2013-12-19 12:41:00,
2013-12-19 13:46:00,49.3,42.6,30.23,South,180,8.0,9.8,78,0.00,,,0.00,,2013-12-19 12:46:00,
2013-12-19 13:51:00,49.3,42.6,30.23,South,180,8.0,9.8,78,0.00,,,0.00,,2013-12-19 12:51:00,
2013-12-19 13:56:00,49.3,42.6,30.23,South,180,8.0,9.8,78,0.00,,,0.00,,2013-12-19 12:56:00,
2013-12-19 14:01:00,48.9,43.0,30.23,South,180,4.9,6.7,80,0.00,,,0.00,,2013-12-19 13:01:00,
2013-12-19 14:06:00,48.9,43.0,30.23,South,180,4.9,6.7,80,0.00,,,0.00,,2013-12-19 13:06:00,
2013-12-19 14:11:00,48.9,43.0,30.23,South,180,4.9,6.7,80,0.00,,,0.00,,2013-12-19 13:11:00,
2013-12-19 14:16:00,48.9,43.0,30.23,South,180,4.9,6.7,80,0.00,,,0.00,,2013-12-19 13:16:00,
2013-12-19 14:21:00,48.9,43.0,30.23,South,180,4.9,6.7,80,0.00,,,0.00,,2013-12-19 13:21:00,
2013-12-19 14:26:00,48.9,43.0,30.23,South,180,4.9,6.7,80,0.00,,,0.00,,2013-12-19 13:26:00,
2013-12-19 14:31:00,48.9,43.0,30.23,South,180,4.9,6.7,80,0.00,,,0.00,,2013-12-19 13:31:00,
2013-12-19 14:36:00,48.9,43.0,30.23,South,180,4.9,6.7,80,0.00,,,0.00,,2013-12-19 13:36:00,
2013-12-19 14:41:00,48.9,43.0,30.23,South,180,4.9,6.7,80,0.00,,,0.00,,2013-12-19 13:41:00,
2013-12-19 14:46:00,48.9,43.0,30.23,South,180,4.9,6.7,80,0.00,,,0.00,,2013-12-19 13:46:00,
2013-12-19 14:51:00,48.9,43.0,30.23,South,180,4.9,6.7,80,0.00,,,0.00,,2013-12-19 13:51:00,
2013-12-19 14:56:00,48.9,43.0,30.23,South,180,4.9,6.7,80,0.00,,,0.00,,2013-12-19 13:56:00,
2013-12-19 15:01:00,48.6,43.0,30.23,South,180,7.6,7.6,81,0.00,,,0.00,,2013-12-19 14:01:00,
2013-12-19 15:06:00,48.6,43.0,30.23,South,180,7.6,7.6,81,0.00,,,0.00,,2013-12-19 14:06:00,
2013-12-19 15:11:00,48.6,43.0,30.23,South,180,5.3,8.0,81,0.00,,,0.00,,2013-12-19 14:11:00,
2013-12-19 15:16:00,48.6,43.0,30.23,South,180,5.3,8.0,81,0.00,,,0.00,,2013-12-19 14:16:00,
2013-12-19 15:21:00,48.6,43.0,30.23,South,180,5.3,8.0,81,0.00,,,0.00,,2013-12-19 14:21:00,
2013-12-19 15:26:00,48.6,43.0,30.23,South,180,5.3,8.0,81,0.00,,,0.00,,2013-12-19 14:26:00,
2013-12-19 15:31:00,48.6,43.0,30.23,South,180,5.3,8.0,81,0.00,,,0.00,,2013-12-19 14:31:00,
2013-12-19 15:36:00,48.6,43.0,30.23,South,180,5.3,8.0,81,0.00,,,0.00,,2013-12-19 14:36:00,
2013-12-19 15:41:00,48.6,43.0,30.23,South,180,5.3,8.0,81,0.00,,,0.00,,2013-12-19 14:41:00,
2013-12-19 15:46:00,48.6,43.0,30.23,South,180,5.3,8.0,81,0.00,,,0.00,,2013-12-19 14:46:00,
2013-12-19 15:51:00,48.6,43.0,30.23,South,180,5.3,8.0,81,0.00,,,0.00,,2013-12-19 14:51:00,
2013-12-19 15:56:00,48.6,43.0,30.23,South,180,5.3,8.0,81,0.00,,,0.00,,2013-12-19 14:56:00,
2013-12-19 16:01:00,48.4,42.8,30.23,South,180,8.5,9.3,81,0.00,,,0.00,,2013-12-19 15:01:00,
2013-12-19 16:06:00,48.4,42.8,30.23,South,180,8.5,9.3,81,0.00,,,0.00,,2013-12-19 15:06:00,
2013-12-19 16:11:00,48.2,42.3,30.23,South,180,6.7,6.7,80,0.00,,,0.00,,2013-12-19 15:11:00,
2013-12-19 16:16:00,48.2,42.3,30.23,South,180,6.7,6.7,80,0.00,,,0.00,,2013-12-19 15:16:00,
2013-12-19 16:21:00,48.2,42.3,30.23,South,180,6.7,6.7,80,0.00,,,0.00,,2013-12-19 15:21:00,
2013-12-19 16:26:00,48.2,42.3,30.23,South,180,6.7,6.7,80,0.00,,,0.00,,2013-12-19 15:26:00,
2013-12-19 16:31:00,48.2,42.3,30.23,South,180,6.7,6.7,80,0.00,,,0.00,,2013-12-19 15:31:00,
2013-12-19 16:36:00,48.2,42.3,30.23,South,180,6.7,6.7,80,0.00,,,0.00,,2013-12-19 15:36:00,
2013-12-19 16:41:00,48.2,42.3,30.23,South,180,6.7,6.7,80,0.00,,,0.00,,2013-12-19 15:41:00,
2013-12-19 16:46:00,48.2,42.3,30.23,South,180,6.7,6.7,80,0.00,,,0.00,,2013-12-19 15:46:00,
2013-12-19 16:51:00,47.7,42.1,30.23,South,180,5.8,7.6,81,0.00,,,0.00,,2013-12-19 15:51:00,
2013-12-19 16:56:00,47.7,42.1,30.23,South,180,5.8,7.6,81,0.00,,,0.00,,2013-12-19 15:56:00,
2013-12-19 17:01:00,47.8,42.3,30.23,South,180,7.1,8.0,81,0.00,,,0.00,,2013-12-19 16:01:00,
2013-12-19 17:06:00,47.8,42.3,30.23,South,180,7.1,8.0,81,0.00,,,0.00,,2013-12-19 16:06:00,
2013-12-19 17:11:00,47.8,42.3,30.23,South,180,7.1,8.0,81,0.00,,,0.00,,2013-12-19 16:11:00,
2013-12-19 17:16:00,47.8,42.3,30.23,South,180,7.1,8.0,81,0.00,,,0.00,,2013-12-19 16:16:00,
2013-12-19 17:21:00,47.8,42.3,30.23,South,180,7.1,8.0,81,0.00,,,0.00,,2013-12-19 16:21:00,
2013-12-19 17:26:00,47.8,42.3,30.23,South,180,7.1,8.0,81,0.00,,,0.00,,2013-12-19 16:26:00,
2013-12-19 17:31:00,47.8,42.3,30.23,South,180,7.1,8.0,81,0.00,,,0.00,,2013-12-19 16:31:00,
2013-12-19 17:36:00,47.7,41.4,30.23,South,180,7.1,9.3,79,0.00,,,0.00,,2013-12-19 16:36:00,
2013-12-19 17:41:00,47.7,41.4,30.23,South,180,7.1,9.3,79,0.00,,,0.00,,2013-12-19 16:41:00,
2013-12-19 17:46:00,47.7,41.4,30.23,South,180,7.1,9.3,79,0.00,,,0.00,,2013-12-19 16:46:00,
2013-12-19 17:51:00,47.7,41.4,30.23,South,180,7.1,9.3,79,0.00,,,0.00,,2013-12-19 16:51:00,
2013-12-19 17:56:00,47.7,41.4,30.23,South,180,7.1,9.3,79,0.00,,,0.00,,2013-12-19 16:56:00,
2013-12-19 18:01:00,46.9,40.6,30.23,South,180,5.8,7.6,79,0.00,,,0.00,,2013-12-19 17:01:00,
2013-12-19 18:06:00,46.9,40.6,30.23,South,180,5.8,7.6,79,0.00,,,0.00,,2013-12-19 17:06:00,
2013-12-19 18:11:00,46.9,40.6,30.23,South,180,5.8,7.6,79,0.00,,,0.00,,2013-12-19 17:11:00,
2013-12-19 18:16:00,47.1,40.5,30.23,South,180,4.9,5.3,78,0.00,,,0.00,,2013-12-19 17:16:00,
2013-12-19 18:26:00,47.1,40.5,30.23,South,180,4.9,5.3,78,0.00,,,0.00,,2013-12-19 17:26:00,
2013-12-19 18:31:00,47.1,40.5,30.23,South,180,4.9,5.3,78,0.00,,,0.00,,2013-12-19 17:31:00,
2013-12-19 18:36:00,47.1,40.5,30.23,South,180,4.9,5.3,78,0.00,,,0.00,,2013-12-19 17:36:00,
2013-12-19 18:41:00,47.1,40.5,30.23,South,180,4.9,5.3,78,0.00,,,0.00,,2013-12-19 17:41:00,
2013-12-19 18:46:00,47.1,40.5,30.23,South,180,4.9,5.3,78,0.00,,,0.00,,2013-12-19 17:46:00,
2013-12-19 18:51:00,47.1,40.5,30.23,South,180,4.9,5.3,78,0.00,,,0.00,,2013-12-19 17:51:00,
2013-12-19 18:56:00,47.1,40.5,30.23,South,180,4.9,5.3,78,0.00,,,0.00,,2013-12-19 17:56:00,
2013-12-19 19:01:00,45.7,39.7,30.23,SW,225,5.8,6.7,80,0.00,,,0.00,,2013-12-19 18:01:00,
2013-12-19 19:06:00,45.7,39.7,30.23,SW,225,5.8,6.7,80,0.00,,,0.00,,2013-12-19 18:06:00,
2013-12-19 19:11:00,45.7,39.7,30.23,SW,225,5.8,6.7,80,0.00,,,0.00,,2013-12-19 18:11:00,
2013-12-19 19:16:00,45.7,39.7,30.23,SW,225,5.8,6.7,80,0.00,,,0.00,,2013-12-19 18:16:00,
2013-12-19 19:21:00,45.7,39.7,30.23,SW,225,5.8,6.7,80,0.00,,,0.00,,2013-12-19 18:21:00,
2013-12-19 19:26:00,45.7,39.7,30.23,SW,225,5.8,6.7,80,0.00,,,0.00,,2013-12-19 18:26:00,
2013-12-19 19:31:00,45.7,39.7,30.23,SW,225,5.8,6.7,80,0.00,,,0.00,,2013-12-19 18:31:00,
2013-12-19 19:36:00,45.7,39.7,30.23,SW,225,5.8,6.7,80,0.00,,,0.00,,2013-12-19 18:36:00,
2013-12-19 19:41:00,45.7,39.7,30.23,SW,225,5.8,6.7,80,0.00,,,0.00,,2013-12-19 18:41:00,
2013-12-19 19:46:00,45.7,39.7,30.23,SW,225,5.8,6.7,80,0.00,,,0.00,,2013-12-19 18:46:00,
2013-12-19 19:51:00,45.7,39.7,30.23,SW,225,5.8,6.7,80,0.00,,,0.00,,2013-12-19 18:51:00,
2013-12-19 19:56:00,45.7,39.7,30.23,SW,225,5.8,6.7,80,0.00,,,0.00,,2013-12-19 18:56:00,
2013-12-19 20:01:00,45.3,39.7,30.26,South,180,5.3,6.2,81,0.00,,,0.00,,2013-12-19 19:01:00,
2013-12-19 20:06:00,45.3,39.7,30.26,South,180,5.3,6.2,81,0.00,,,0.00,,2013-12-19 19:06:00,
2013-12-19 20:11:00,45.3,39.7,30.26,South,180,5.3,6.2,81,0.00,,,0.00,,2013-12-19 19:11:00,
2013-12-19 20:16:00,45.3,39.7,30.26,South,180,5.3,6.2,81,0.00,,,0.00,,2013-12-19 19:16:00,
2013-12-19 20:21:00,45.3,39.7,30.26,South,180,5.3,6.2,81,0.00,,,0.00,,2013-12-19 19:21:00,
2013-12-19 20:26:00,45.3,39.7,30.26,South,180,5.3,6.2,81,0.00,,,0.00,,2013-12-19 19:26:00,
2013-12-19 20:31:00,45.3,39.7,30.26,South,180,5.3,6.2,81,0.00,,,0.00,,2013-12-19 19:31:00,
2013-12-19 20:36:00,45.3,39.7,30.26,South,180,5.3,6.2,81,0.00,,,0.00,,2013-12-19 19:36:00,
2013-12-19 20:41:00,45.3,39.7,30.26,South,180,5.3,6.2,81,0.00,,,0.00,,2013-12-19 19:41:00,
2013-12-19 20:46:00,45.3,39.7,30.26,South,180,5.3,6.2,81,0.00,,,0.00,,2013-12-19 19:46:00,
2013-12-19 20:51:00,45.7,39.7,30.26,South,180,3.5,3.5,80,0.00,,,0.00,,2013-12-19 19:51:00,
2013-12-19 20:56:00,45.7,39.7,30.26,South,180,3.5,3.5,80,0.00,,,0.00,,2013-12-19 19:56:00,
2013-12-19 21:01:00,45.1,39.2,30.26,South,180,0.8,1.7,80,0.00,,,0.00,,2013-12-19 20:01:00,
2013-12-19 21:06:00,45.1,39.2,30.26,South,180,0.8,1.7,80,0.00,,,0.00,,2013-12-19 20:06:00,
2013-12-19 21:16:00,45.1,39.2,30.26,South,180,0.8,1.7,80,0.00,,,0.00,,2013-12-19 20:16:00,
2013-12-19 21:21:00,45.1,39.2,30.26,South,180,0.8,1.7,80,0.00,,,0.00,,2013-12-19 20:21:00,
2013-12-19 21:26:00,45.1,39.2,30.26,South,180,0.8,1.7,80,0.00,,,0.00,,2013-12-19 20:26:00,
2013-12-19 21:31:00,45.1,39.2,30.26,South,180,0.8,1.7,80,0.00,,,0.00,,2013-12-19 20:31:00,
2013-12-19 21:36:00,45.1,39.2,30.26,South,180,0.8,1.7,80,0.00,,,0.00,,2013-12-19 20:36:00,
2013-12-19 21:41:00,45.1,39.2,30.26,South,180,0.8,1.7,80,0.00,,,0.00,,2013-12-19 20:41:00,
2013-12-19 21:46:00,45.1,39.2,30.26,South,180,0.8,1.7,80,0.00,,,0.00,,2013-12-19 20:46:00,
2013-12-19 21:51:00,45.1,39.2,30.26,South,180,0.8,1.7,80,0.00,,,0.00,,2013-12-19 20:51:00,
2013-12-19 21:56:00,45.1,39.2,30.26,South,180,0.8,1.7,80,0.00,,,0.00,,2013-12-19 20:56:00,
2013-12-19 22:01:00,44.8,39.2,30.26,South,180,3.5,4.4,81,0.00,,,0.00,,2013-12-19 21:01:00,
2013-12-19 22:06:00,44.8,39.2,30.26,South,180,3.5,4.4,81,0.00,,,0.00,,2013-12-19 21:06:00,
2013-12-19 22:11:00,44.8,39.2,30.26,South,180,3.5,4.4,81,0.00,,,0.00,,2013-12-19 21:11:00,
2013-12-19 22:16:00,44.8,39.2,30.26,South,180,3.5,4.4,81,0.00,,,0.00,,2013-12-19 21:16:00,
2013-12-19 22:21:00,44.8,39.2,30.26,South,180,3.5,4.4,81,0.00,,,0.00,,2013-12-19 21:21:00,
2013-12-19 22:26:00,44.8,39.2,30.26,South,180,3.5,4.4,81,0.00,,,0.00,,2013-12-19 21:26:00,
2013-12-19 22:31:00,44.6,38.5,30.26,SW,225,1.7,2.6,79,0.00,,,0.00,,2013-12-19 21:31:00,
2013-12-19 22:36:00,44.6,38.5,30.26,SW,225,1.7,2.6,79,0.00,,,0.00,,2013-12-19 21:36:00,
2013-12-19 22:41:00,44.6,38.5,30.26,SW,225,1.7,2.6,79,0.00,,,0.00,,2013-12-19 21:41:00,
2013-12-19 22:46:00,44.6,38.5,30.26,SW,225,1.7,2.6,79,0.00,,,0.00,,2013-12-19 21:46:00,
2013-12-19 22:51:00,44.6,38.5,30.26,SW,225,1.7,2.6,79,0.00,,,0.00,,2013-12-19 21:51:00,
2013-12-19 22:56:00,44.6,38.5,30.26,SW,225,1.7,2.6,79,0.00,,,0.00,,2013-12-19 21:56:00,
2013-12-19 23:01:00,44.2,38.3,30.26,South,180,3.1,3.5,80,0.00,,,0.00,,2013-12-19 22:01:00,
2013-12-19 23:06:00,44.2,38.3,30.26,South,180,3.1,3.5,80,0.00,,,0.00,,2013-12-19 22:06:00,
2013-12-19 23:11:00,44.2,38.3,30.26,South,180,3.1,3.5,80,0.00,,,0.00,,2013-12-19 22:11:00,
2013-12-19 23:16:00,44.2,38.3,30.26,South,180,3.1,3.5,80,0.00,,,0.00,,2013-12-19 22:16:00,
2013-12-19 23:21:00,44.2,38.3,30.26,South,180,3.1,3.5,80,0.00,,,0.00,,2013-12-19 22:21:00,
2013-12-19 23:26:00,44.2,38.3,30.26,South,180,3.1,3.5,80,0.00,,,0.00,,2013-12-19 22:26:00,
2013-12-19 23:31:00,44.2,38.3,30.26,South,180,3.1,3.5,80,0.00,,,0.00,,2013-12-19 22:31:00,
2013-12-19 23:36:00,44.8,39.2,30.26,West,270,1.3,2.2,81,0.00,,,0.00,,2013-12-19 22:36:00,
2013-12-19 23:41:00,44.8,39.2,30.26,West,270,1.3,2.2,81,0.00,,,0.00,,2013-12-19 22:41:00,
2013-12-19 23:46:00,44.8,39.2,30.26,West,270,1.3,2.2,81,0.00,,,0.00,,2013-12-19 22:46:00,
2013-12-19 23:51:00,45.0,40.1,30.26,SW,225,1.7,1.7,83,0.00,,,0.00,,2013-12-19 22:51:00,
2013-12-19 23:56:00,45.0,40.1,30.26,SW,225,1.7,1.7,83,0.00,,,0.00,,2013-12-19 22:56:00,